createdAt,value
2022-12-14T00:02:15.512Z,10.52
2022-12-14T00:04:44.485Z,13.05
2022-12-14T00:07:11.557Z,10.70
2022-12-14T00:09:38.982Z,9.80
2022-12-14T00:12:09.128Z,6.07
2022-12-14T00:14:37.253Z,9.98
2022-12-14T00:17:04.496Z,8.90
2022-12-14T00:19:32.725Z,8.57
2022-12-14T00:21:59.964Z,8.80
2022-12-14T00:24:27.545Z,6.32
2022-12-14T00:26:54.575Z,7.40
2022-12-14T00:29:22.277Z,6.70
2022-12-14T00:31:50.082Z,9.45
2022-12-14T00:34:19.282Z,8.25
2022-12-14T00:36:46.306Z,7.57
2022-12-14T00:39:13.693Z,10.02
2022-12-14T00:41:40.816Z,9.35
2022-12-14T00:44:08.375Z,10.32
2022-12-14T00:46:35.798Z,9.43
2022-12-14T00:49:03.227Z,9.90
2022-12-14T00:51:30.561Z,9.20
2022-12-14T00:53:57.906Z,11.73
2022-12-14T00:56:25.055Z,10.73
2022-12-14T00:58:53.411Z,9.75
2022-12-14T01:01:22.502Z,9.88
2022-12-14T01:03:51.154Z,12.13
2022-12-14T01:06:23.163Z,9.50
2022-12-14T01:08:50.915Z,10.60
2022-12-14T01:11:18.003Z,9.43
2022-12-14T01:13:49.352Z,11.10
2022-12-14T01:16:17.402Z,10.32
2022-12-14T01:18:44.758Z,10.75
2022-12-14T01:21:14.670Z,16.33
2022-12-14T01:23:42.993Z,13.95
2022-12-14T01:26:10.705Z,13.32
2022-12-14T01:28:38.161Z,13.23
2022-12-14T01:31:10.579Z,15.57
2022-12-14T01:33:38.497Z,12.93
2022-12-14T01:36:09.912Z,14.38
2022-12-14T01:38:37.488Z,13.10
2022-12-14T01:41:05.878Z,13.70
2022-12-14T01:43:53.024Z,14.95
2022-12-14T01:46:37.755Z,13.02
2022-12-14T01:49:16.369Z,13.68
2022-12-14T01:51:49.019Z,11.65
2022-12-14T01:54:16.553Z,11.20
2022-12-14T01:56:46.938Z,10.60
2022-12-14T01:59:29.462Z,11.20
2022-12-14T02:01:58.956Z,10.60
2022-12-14T02:04:26.949Z,16.38
2022-12-14T02:07:00.837Z,19.08
2022-12-14T02:09:34.186Z,14.63
2022-12-14T02:12:27.027Z,13.95
2022-12-14T02:14:56.048Z,12.73
2022-12-14T02:17:23.397Z,14.07
2022-12-14T02:19:51.477Z,12.45
2022-12-14T02:22:49.134Z,14.60
2022-12-14T02:25:54.157Z,18.25
2022-12-14T02:28:43.707Z,23.67
2022-12-14T02:31:11.202Z,19.98
2022-12-14T02:33:42.375Z,25.67
2022-12-14T02:36:53.349Z,39.80
2022-12-14T02:39:39.600Z,23.63
2022-12-14T02:42:41.547Z,22.85
2022-12-14T02:45:41.855Z,14.82
2022-12-14T02:48:19.469Z,17.73
2022-12-14T02:50:57.842Z,15.05
2022-12-14T02:53:44.157Z,15.60
2022-12-14T02:56:16.468Z,23.02
2022-12-14T02:58:50.779Z,23.23
2022-12-14T03:01:25.459Z,23.75
2022-12-14T03:03:53.468Z,22.52
2022-12-14T03:06:27.321Z,18.80
2022-12-14T03:09:17.227Z,16.25
2022-12-14T03:11:59.908Z,14.55
2022-12-14T03:14:33.379Z,10.70
2022-12-14T03:17:31.356Z,15.82
2022-12-14T03:20:12.752Z,11.48
2022-12-14T03:22:45.474Z,10.25
2022-12-14T03:25:18.892Z,12.10
2022-12-14T03:27:58.013Z,10.55
2022-12-14T03:30:51.326Z,9.38
2022-12-14T03:33:19.256Z,9.45
2022-12-14T03:35:58.794Z,11.13
2022-12-14T03:38:32.561Z,10.70
2022-12-14T03:41:15.802Z,9.70
2022-12-14T03:44:04.552Z,8.38
2022-12-14T03:46:57.122Z,9.30
2022-12-14T03:49:42.283Z,10.02
2022-12-14T03:52:22.308Z,9.73
2022-12-14T03:55:07.503Z,9.27
2022-12-14T03:57:56.822Z,8.73
2022-12-14T04:00:25.363Z,8.13
2022-12-14T04:03:15.861Z,10.70
2022-12-14T04:05:55.818Z,8.98
2022-12-14T04:08:29.512Z,12.18
2022-12-14T04:11:18.965Z,10.82
2022-12-14T04:14:13.464Z,11.00
2022-12-14T04:17:01.168Z,9.57
2022-12-14T04:19:49.356Z,11.23
2022-12-14T04:22:22.565Z,11.13
2022-12-14T04:25:18.028Z,10.40
2022-12-14T04:27:51.015Z,9.95
2022-12-14T04:30:19.364Z,9.82
2022-12-14T04:32:54.825Z,10.70
2022-12-14T04:35:31.000Z,8.73
2022-12-14T04:38:11.035Z,10.85
2022-12-14T04:40:43.965Z,10.73
2022-12-14T04:43:20.568Z,10.35
2022-12-14T04:46:13.668Z,10.98
2022-12-14T04:48:47.423Z,10.70
2022-12-14T04:51:46.105Z,9.50
2022-12-14T04:54:24.731Z,10.68
2022-12-14T04:57:07.649Z,10.43
2022-12-14T04:59:35.440Z,11.05
2022-12-14T05:02:12.253Z,10.93
2022-12-14T05:05:08.847Z,11.32
2022-12-14T05:07:54.579Z,11.50
2022-12-14T05:10:48.996Z,12.05
2022-12-14T05:13:30.570Z,10.98
2022-12-14T05:16:01.463Z,11.60
2022-12-14T05:18:31.250Z,7.65
2022-12-14T05:20:59.253Z,10.98
2022-12-14T05:23:27.068Z,10.27
2022-12-14T05:26:03.158Z,15.45
2022-12-14T05:28:34.237Z,18.20
2022-12-14T05:31:01.807Z,13.63
2022-12-14T05:33:33.330Z,12.35
2022-12-14T05:38:59.568Z,11.88
2022-12-14T05:41:27.253Z,10.85
2022-12-14T05:43:56.006Z,11.35
2022-12-14T05:46:29.615Z,11.30
2022-12-14T05:49:12.298Z,11.10
2022-12-14T05:51:43.787Z,11.18
2022-12-14T05:54:13.289Z,11.98
2022-12-14T05:56:40.347Z,11.13
2022-12-14T05:59:07.904Z,12.15
2022-12-14T06:01:38.704Z,12.23
2022-12-14T06:04:23.441Z,12.30
2022-12-14T06:06:50.627Z,13.98
2022-12-14T06:09:18.868Z,14.20
2022-12-14T06:11:47.457Z,13.73
2022-12-14T06:14:15.279Z,13.27
2022-12-14T06:16:45.747Z,15.00
2022-12-14T06:19:14.881Z,23.98
2022-12-14T06:21:43.250Z,15.18
2022-12-14T06:24:16.389Z,15.77
2022-12-14T06:26:43.508Z,14.00
2022-12-14T06:29:16.042Z,10.65
2022-12-14T06:31:43.009Z,11.70
2022-12-14T06:34:12.326Z,15.10
2022-12-14T06:36:43.491Z,14.35
2022-12-14T06:39:17.991Z,13.80
2022-12-14T06:41:56.457Z,15.70
2022-12-14T06:44:40.023Z,14.93
2022-12-14T06:47:10.726Z,18.63
2022-12-14T06:49:47.359Z,18.70
2022-12-14T06:52:15.996Z,14.88
2022-12-14T06:54:59.809Z,11.25
2022-12-14T06:57:52.829Z,11.50
2022-12-14T07:00:25.471Z,14.77
2022-12-14T07:02:55.198Z,14.05
2022-12-14T07:05:25.488Z,12.77
2022-12-14T07:13:15.836Z,14.43
2022-12-14T07:15:43.396Z,13.02
2022-12-14T07:18:11.024Z,14.82
2022-12-14T07:20:38.750Z,13.98
2022-12-14T07:23:06.733Z,12.98
2022-12-14T07:25:36.872Z,10.13
2022-12-14T07:28:05.909Z,12.48
2022-12-14T07:30:34.209Z,12.85
2022-12-14T07:33:01.711Z,13.98
2022-12-14T07:35:29.258Z,10.93
2022-12-14T07:37:56.383Z,12.38
2022-12-14T07:40:24.159Z,11.77
2022-12-14T07:42:51.212Z,10.90
2022-12-14T07:45:18.849Z,7.40
2022-12-14T07:47:49.547Z,13.02
2022-12-14T07:50:16.975Z,7.85
2022-12-14T07:52:43.996Z,5.22
2022-12-14T07:55:11.402Z,5.18
2022-12-14T07:57:38.425Z,8.43
2022-12-14T08:00:06.392Z,8.18
2022-12-14T08:08:06.199Z,12.93
2022-12-14T08:10:40.057Z,17.88
2022-12-14T08:13:07.400Z,13.25
2022-12-14T08:18:08.708Z,9.50
2022-12-14T08:20:36.321Z,14.90
2022-12-14T08:23:03.872Z,15.55
2022-12-14T08:28:13.065Z,14.45
2022-12-14T08:30:40.872Z,12.82
2022-12-14T08:41:37.491Z,9.38
2022-12-14T08:46:40.490Z,13.45
2022-12-14T08:49:08.036Z,12.48
2022-12-14T08:51:39.799Z,7.47
2022-12-14T08:54:07.378Z,9.20
2022-12-14T08:56:34.447Z,13.55
2022-12-14T08:59:01.915Z,9.75
2022-12-14T09:01:34.116Z,8.88
2022-12-14T09:04:08.521Z,12.95
2022-12-14T09:06:44.204Z,10.63
2022-12-14T09:09:16.431Z,11.95
2022-12-14T09:11:45.077Z,7.80
2022-12-14T09:14:12.748Z,12.27
2022-12-14T09:16:40.387Z,10.55
2022-12-14T09:21:49.969Z,8.68
2022-12-14T09:24:18.413Z,9.52
2022-12-14T09:26:47.001Z,9.77
2022-12-14T09:29:16.985Z,8.20
2022-12-14T09:31:45.578Z,9.10
2022-12-14T09:34:13.156Z,10.88
2022-12-14T09:36:40.310Z,10.00
2022-12-14T09:39:07.764Z,11.65
2022-12-14T09:41:34.821Z,12.95
2022-12-14T09:44:25.104Z,12.93
2022-12-14T09:47:19.463Z,11.77
2022-12-14T09:50:09.382Z,7.75
2022-12-14T09:52:44.244Z,7.60
2022-12-14T09:55:26.405Z,8.13
2022-12-14T09:58:05.866Z,7.20
2022-12-14T10:00:49.614Z,5.75
2022-12-14T10:03:44.011Z,6.93
2022-12-14T10:06:32.876Z,6.78
2022-12-14T10:09:21.452Z,6.45
2022-12-14T10:12:34.406Z,5.32
2022-12-14T10:15:18.228Z,4.75
2022-12-14T10:18:01.412Z,7.28
2022-12-14T10:20:48.506Z,6.43
2022-12-14T10:23:43.235Z,6.88
2022-12-14T10:26:16.259Z,5.15
2022-12-14T10:28:52.221Z,6.50
2022-12-14T10:32:15.580Z,5.00
2022-12-14T10:34:45.905Z,6.22
2022-12-14T10:37:25.885Z,6.38
2022-12-14T10:40:29.193Z,6.22
2022-12-14T10:43:11.803Z,5.68
2022-12-14T10:46:02.444Z,5.47
2022-12-14T10:48:46.476Z,5.75
2022-12-14T10:51:34.184Z,6.38
2022-12-14T10:54:27.668Z,6.30
2022-12-14T10:56:55.542Z,6.47
2022-12-14T10:59:23.842Z,4.38
2022-12-14T11:02:17.852Z,4.53
2022-12-14T11:04:45.146Z,6.40
2022-12-14T11:07:15.876Z,5.50
2022-12-14T11:09:43.619Z,5.35
2022-12-14T11:12:14.031Z,2.78
2022-12-14T11:15:00.816Z,5.80
2022-12-14T11:17:42.866Z,5.28
2022-12-14T11:20:27.652Z,4.10
2022-12-14T11:23:28.851Z,2.85
2022-12-14T11:25:59.254Z,4.43
2022-12-14T11:28:40.947Z,4.00
2022-12-14T11:31:43.768Z,3.78
2022-12-14T11:34:28.126Z,4.30
2022-12-14T11:37:04.364Z,5.85
2022-12-14T11:39:42.682Z,5.15
2022-12-14T11:42:20.002Z,3.60
2022-12-14T11:44:50.261Z,4.70
2022-12-14T11:47:26.777Z,3.63
2022-12-14T11:49:56.846Z,4.05
2022-12-14T11:54:56.041Z,3.85
2022-12-14T11:57:29.706Z,4.43
2022-12-14T12:00:07.167Z,4.55
2022-12-14T12:02:38.269Z,4.22
2022-12-14T12:05:08.412Z,4.47
2022-12-14T12:07:38.925Z,3.70
2022-12-14T12:10:17.290Z,4.22
2022-12-14T12:13:18.483Z,3.47
2022-12-14T12:15:53.731Z,3.15
2022-12-14T12:18:38.411Z,4.80
2022-12-14T12:21:16.794Z,5.28
2022-12-14T12:23:43.919Z,4.72
2022-12-14T12:26:40.493Z,6.25
2022-12-14T12:29:29.585Z,4.68
2022-12-14T12:32:28.156Z,6.00
2022-12-14T12:35:21.020Z,5.00
2022-12-14T12:38:02.436Z,3.13
2022-12-14T12:40:51.520Z,4.43
2022-12-14T12:43:36.742Z,4.05
2022-12-14T12:46:19.700Z,4.18
2022-12-14T12:49:02.361Z,3.65
2022-12-14T12:51:35.522Z,3.22
2022-12-14T12:54:14.637Z,3.45
2022-12-14T12:56:51.494Z,4.00
2022-12-14T12:59:24.629Z,3.70
2022-12-14T13:01:57.573Z,4.30
2022-12-14T13:04:33.801Z,3.40
2022-12-14T13:07:08.991Z,3.95
2022-12-14T13:09:48.817Z,3.63
2022-12-14T13:12:26.128Z,2.30
2022-12-14T13:14:56.530Z,2.35
2022-12-14T13:17:54.045Z,2.97
2022-12-14T13:20:30.321Z,3.10
2022-12-14T13:23:05.694Z,4.57
2022-12-14T13:25:42.844Z,4.13
2022-12-14T13:28:18.865Z,4.28
2022-12-14T13:30:55.977Z,4.55
2022-12-14T13:33:43.427Z,4.20
2022-12-14T13:36:25.937Z,2.85
2022-12-14T13:38:52.932Z,3.05
2022-12-14T13:41:49.521Z,3.65
2022-12-14T13:44:54.146Z,4.88
2022-12-14T13:47:28.835Z,4.28
2022-12-14T13:53:01.592Z,2.92
2022-12-14T13:55:38.724Z,3.78
2022-12-14T13:58:34.019Z,3.72
2022-12-14T14:01:09.609Z,3.78
2022-12-14T14:03:38.671Z,3.13
2022-12-14T14:06:12.582Z,2.35
2022-12-14T14:08:45.885Z,3.70
2022-12-14T14:11:38.418Z,3.35
2022-12-14T14:14:26.772Z,5.53
2022-12-14T14:17:04.079Z,4.88
2022-12-14T14:19:39.646Z,5.38
2022-12-14T14:22:26.000Z,5.05
2022-12-14T14:27:57.422Z,5.55
2022-12-14T14:30:24.472Z,5.90
2022-12-14T14:32:54.265Z,5.47
2022-12-14T14:35:40.745Z,6.88
2022-12-14T14:38:31.076Z,5.55
2022-12-14T14:41:20.568Z,4.65
2022-12-14T14:43:52.645Z,6.57
2022-12-14T14:46:38.551Z,6.80
2022-12-14T14:49:09.091Z,5.28
2022-12-14T14:51:37.619Z,7.22
2022-12-14T14:57:59.099Z,7.65
2022-12-14T15:00:27.041Z,5.82
2022-12-14T15:02:55.651Z,5.00
2022-12-14T15:05:43.516Z,7.25
2022-12-14T15:08:39.952Z,6.25
2022-12-14T15:11:15.583Z,5.70
2022-12-14T15:17:24.813Z,7.05
2022-12-14T15:20:21.220Z,6.80
2022-12-14T15:22:56.678Z,6.40
2022-12-14T15:25:28.820Z,4.72
2022-12-14T15:28:00.594Z,6.40
2022-12-14T15:30:32.984Z,6.18
2022-12-14T15:33:18.470Z,7.97
2022-12-14T15:35:49.518Z,6.93
2022-12-14T15:38:54.940Z,6.72
2022-12-14T15:41:25.727Z,7.45
2022-12-14T15:44:02.742Z,5.18
2022-12-14T15:46:33.612Z,7.18
2022-12-14T15:49:10.529Z,6.97
2022-12-14T15:51:46.384Z,7.05
2022-12-14T15:54:26.106Z,6.70
2022-12-14T15:57:02.808Z,6.32
2022-12-14T15:59:35.887Z,6.47
2022-12-14T16:02:16.824Z,6.63
2022-12-14T16:07:19.226Z,6.57
2022-12-14T16:09:54.577Z,8.23
2022-12-14T16:12:32.273Z,8.02
2022-12-14T16:15:00.608Z,8.88
2022-12-14T16:17:37.930Z,7.50
2022-12-14T16:20:32.682Z,7.53
2022-12-14T16:23:06.586Z,6.35
2022-12-14T16:25:37.273Z,6.07
2022-12-14T16:28:36.418Z,6.05
2022-12-14T16:31:22.730Z,6.55
2022-12-14T16:34:13.504Z,7.30
2022-12-14T16:36:48.209Z,4.65
2022-12-14T16:39:24.521Z,7.13
2022-12-14T16:41:52.804Z,7.53
2022-12-14T16:47:04.785Z,6.13
2022-12-14T16:50:17.554Z,5.63
2022-12-14T16:52:45.871Z,6.43
2022-12-14T16:55:20.861Z,6.47
2022-12-14T16:57:48.852Z,5.32
2022-12-14T17:00:27.851Z,7.03
2022-12-14T17:02:59.662Z,6.65
2022-12-14T17:05:40.871Z,7.47
2022-12-14T17:08:33.912Z,7.18
2022-12-14T17:11:08.613Z,6.10
2022-12-14T17:13:53.773Z,5.28
2022-12-14T17:19:38.464Z,6.07
2022-12-14T17:22:16.353Z,7.20
2022-12-14T17:24:46.488Z,7.47
2022-12-14T17:27:30.508Z,6.90
2022-12-14T17:29:58.257Z,7.13
2022-12-14T17:32:32.919Z,6.55
2022-12-14T17:35:02.161Z,5.03
2022-12-14T17:37:37.072Z,6.38
2022-12-14T17:40:14.715Z,7.72
2022-12-14T17:42:46.750Z,6.82
2022-12-14T17:45:34.992Z,6.07
2022-12-14T17:48:03.996Z,5.68
2022-12-14T17:50:32.744Z,7.28
2022-12-14T17:53:00.504Z,5.45
2022-12-14T17:55:29.772Z,7.40
2022-12-14T18:00:47.013Z,5.38
2022-12-14T18:03:17.039Z,4.47
2022-12-14T18:05:48.928Z,5.68
2022-12-14T18:08:17.998Z,6.10
2022-12-14T18:10:49.656Z,6.28
2022-12-14T18:13:18.840Z,4.30
2022-12-14T18:15:53.257Z,4.57
2022-12-14T18:20:58.483Z,4.43
2022-12-14T18:23:27.303Z,4.65
2022-12-14T18:25:59.723Z,5.20
2022-12-14T18:28:27.471Z,5.93
2022-12-14T18:30:59.008Z,5.38
2022-12-14T18:33:34.915Z,4.93
2022-12-14T18:36:02.279Z,3.80
2022-12-14T18:38:30.332Z,4.35
2022-12-14T18:41:01.940Z,4.35
2022-12-14T18:45:58.075Z,5.80
2022-12-14T18:48:26.113Z,4.68
2022-12-14T18:50:55.128Z,4.85
2022-12-14T18:53:24.935Z,5.70
2022-12-14T18:55:52.829Z,5.10
2022-12-14T18:58:30.376Z,5.10
2022-12-14T19:03:55.064Z,4.78
2022-12-14T19:09:12.062Z,4.75
2022-12-14T19:11:42.136Z,5.00
2022-12-14T19:14:14.671Z,7.20
2022-12-14T19:16:41.623Z,5.03
2022-12-14T19:19:09.236Z,5.55
2022-12-14T19:21:36.602Z,6.13
2022-12-14T19:24:29.327Z,4.97
2022-12-14T19:26:59.494Z,6.82
2022-12-14T19:29:28.214Z,7.40
2022-12-14T19:31:58.055Z,6.03
2022-12-14T19:34:29.407Z,6.25
2022-12-14T19:36:56.479Z,6.03
2022-12-14T19:39:24.123Z,5.40
2022-12-14T19:41:51.300Z,6.55
2022-12-14T19:44:20.297Z,6.35
2022-12-14T19:47:01.168Z,5.82
2022-12-14T19:49:31.423Z,6.07
2022-12-14T19:54:32.110Z,3.75
2022-12-14T19:57:01.529Z,5.38
2022-12-14T19:59:30.089Z,5.15
2022-12-14T20:01:57.252Z,5.38
2022-12-14T20:04:34.004Z,6.20
2022-12-14T20:07:29.783Z,5.95
2022-12-14T20:10:04.000Z,4.97
2022-12-14T20:12:35.681Z,5.45
2022-12-14T20:15:21.334Z,4.82
2022-12-14T20:17:52.904Z,4.88
2022-12-14T20:20:31.635Z,5.78
2022-12-14T20:23:03.505Z,6.03
2022-12-14T20:25:39.046Z,6.47
2022-12-14T20:28:06.390Z,5.95
2022-12-14T20:30:58.566Z,6.47
2022-12-14T20:33:30.249Z,4.70
2022-12-14T20:35:59.022Z,6.05
2022-12-14T20:38:34.202Z,6.30
2022-12-14T20:41:06.699Z,5.78
2022-12-14T20:43:36.124Z,5.85
2022-12-14T20:46:04.394Z,5.60
2022-12-14T20:48:32.845Z,6.20
2022-12-14T20:51:01.866Z,5.00
2022-12-14T20:53:30.792Z,5.60
2022-12-14T20:56:03.217Z,4.55
2022-12-14T20:58:30.761Z,4.78
2022-12-14T21:01:05.734Z,6.30
2022-12-14T21:03:38.577Z,5.22
2022-12-14T21:06:18.722Z,5.15
2022-12-14T21:09:01.814Z,4.47
2022-12-14T21:11:47.864Z,5.60
2022-12-14T21:14:16.205Z,4.95
2022-12-14T21:16:44.155Z,6.45
2022-12-14T21:19:13.335Z,6.88
2022-12-14T21:21:41.746Z,6.90
2022-12-14T21:24:31.121Z,6.40
2022-12-14T21:27:02.780Z,6.40
2022-12-14T21:29:31.209Z,7.47
2022-12-14T21:32:06.189Z,4.90
2022-12-14T21:34:34.494Z,7.25
2022-12-14T21:37:08.039Z,5.35
2022-12-14T21:39:36.758Z,6.07
2022-12-14T21:42:14.267Z,5.47
2022-12-14T21:44:55.207Z,5.15
2022-12-14T21:47:29.318Z,5.60
2022-12-14T21:49:57.042Z,5.72
2022-12-14T21:52:26.837Z,5.78
2022-12-14T21:55:00.047Z,3.92
2022-12-14T21:57:49.458Z,5.07
2022-12-14T22:00:21.776Z,7.20
2022-12-14T22:02:49.102Z,4.63
2022-12-14T22:05:17.782Z,6.90
2022-12-14T22:07:44.803Z,6.90
2022-12-14T22:10:12.822Z,6.32
2022-12-14T22:12:40.058Z,5.72
2022-12-14T22:15:08.472Z,4.85
2022-12-14T22:17:35.348Z,7.45
2022-12-14T22:20:02.890Z,7.28
2022-12-14T22:22:34.224Z,6.60
2022-12-14T22:25:02.250Z,6.15
2022-12-14T22:27:30.529Z,7.30
2022-12-14T22:30:01.395Z,5.20
2022-12-14T22:32:28.422Z,5.82
2022-12-14T22:34:55.795Z,5.88
2022-12-14T22:37:22.748Z,6.00
2022-12-14T22:39:50.083Z,4.63
2022-12-14T22:42:17.199Z,6.00
2022-12-14T22:44:45.259Z,4.93
2022-12-14T22:47:12.245Z,5.88
2022-12-14T22:49:39.670Z,5.10
2022-12-14T22:52:06.679Z,4.82
2022-12-14T22:54:38.025Z,4.28
2022-12-14T22:57:10.176Z,6.18
2022-12-14T23:00:00.470Z,8.02
2022-12-14T23:02:30.005Z,5.90
2022-12-14T23:04:57.496Z,5.25
2022-12-14T23:07:24.524Z,6.03
2022-12-14T23:10:10.433Z,6.00
2022-12-14T23:12:56.149Z,4.88
2022-12-14T23:15:42.411Z,6.07
2022-12-14T23:18:28.124Z,4.82
2022-12-14T23:21:14.683Z,5.95
2022-12-14T23:24:02.639Z,6.43
2022-12-14T23:26:49.886Z,4.47
2022-12-14T23:29:36.557Z,5.28
2022-12-14T23:32:22.544Z,5.70
2022-12-14T23:35:08.766Z,6.35
2022-12-14T23:37:54.947Z,4.63
2022-12-14T23:40:40.777Z,5.30
2022-12-14T23:43:32.070Z,6.75
2022-12-14T23:46:18.470Z,4.38
2022-12-14T23:49:04.604Z,4.38
2022-12-14T23:51:50.530Z,4.28
2022-12-14T23:54:36.528Z,4.07
2022-12-14T23:57:25.768Z,5.25
